Weather at County Memorial Airport

Public forecast

Using degrees Fahrenheit for public forecast. Weather courtesy of forecast.io.

Closest aviation weather report (METAR) to County Memorial Airport

Closest report is Sikeston Memorial Municipal Airport, 21.9 nm (40.6 km) N. Retrieved 2021/11/29 13:35 UTC (12 minutes ago):

KSIK 291335Z AUTO 00000KT 10SM CLR M02/M02 A3023 RMK AO2 TSNO

Closest aviation forecast (TAF) to County Memorial Airport

Closest forecast is Cape Girardeau Regional Airport, 41.5 nm (76.8 km) N. Retrieved 2021/11/29 12:46 UTC (1 hour ago):

TAF KCGI 291143Z 2912/3012 18004KT P6SM FEW250 FM291900 19010G18KT P6SM FEW250 FM300200 20009KT P6SM SKC FM301000 23005KT P6SM SKC